Flight Track Log - Related Links

Times and Time Zones

All times are in EST time to prevent confusion due to time zone crossing. See the EJA396 flight status page for this flight to view local times or setup timezone preferences in your user account.

Time Position Orientation Groundspeed Altitude Reporting Facility
EST Latitude Longitude Course Direction KTS MPH feet Rate Location/Type
Sun 09:39:07 PM 42.3667 -71.0000 324° Northwest 149 171 700  Level KA90
Sun 09:39:25 PM 42.3833 -71.0167 324° Northwest 160 184 1,700 2,692 Climbing KA90
Sun 09:40:25 PM 42.4000 -71.0833 289° West 179 206 4,200 2,717 Climbing KA90
Sun 09:42:04 PM 42.3522 -71.1872 238° Southwest 242 278 8,900 3,019 Climbing Boston Center
Sun 09:43:02 PM 42.2742 -71.1706 171° South 305 351 12,100 2,607 Climbing Boston Center
Sun 09:44:06 PM 42.1942 -71.0897 143° Southeast 361 415 14,200 2,304 Climbing Boston Center
Sun 09:45:07 PM 42.1125 -71.0031 142° Southeast 372 428 16,900 2,678 Climbing Boston Center
Sun 09:46:07 PM 42.0297 -70.9250 145° Southeast 375 432 19,600 2,678 Climbing Boston Center
Sun 09:47:08 PM 41.9408 -70.8414 145° Southeast 383 441 22,300 2,656 Climbing Boston Center
Sun 09:48:09 PM 41.8411 -70.7944 161° South 388 447 25,000 2,508 Climbing Boston Center
Sun 09:49:10 PM 41.7608 -70.8572 210° Southwest 342 394 27,400 2,066 Climbing Boston Center
Sun 09:50:11 PM 41.6894 -70.9439 222° Southwest 347 399 29,200 1,815 Climbing Boston Center
Sun 09:51:09 PM 41.6167 -71.0306 222° Southwest 350 403 31,000 2,017 Climbing Boston Center
Sun 09:52:10 PM 41.5342 -71.1319 223° Southwest 338 389 33,200 1,935 Climbing Boston Center
Sun 09:53:13 PM 41.4678 -71.2131 222° Southwest 328 377 35,000 1,377 Climbing Boston Center
Sun 09:54:12 PM 41.4014 -71.2933 222° Southwest 319 367 36,000 500 Climbing Boston Center
Sun 09:55:13 PM 41.3322 -71.3769 222° Southwest 334 384 36,000  Level Boston Center
Sun 09:56:13 PM 41.2636 -71.4606 223° Southwest 341 392 36,000  Level Boston Center
Sun 09:57:16 PM 41.1939 -71.5453 222° Southwest 341 392 36,000  Level Boston Center
Sun 09:58:16 PM 41.1244 -71.6369 225° Southwest 342 394 36,000  Level Boston Center
Sun 09:59:17 PM 41.0569 -71.7242 224° Southwest 339 390 36,000  Level Boston Center
Sun 10:00:18 PM 40.9936 -71.8092 225° Southwest 336 387 36,000  Level Boston Center
Sun 10:01:20 PM 40.9286 -71.8953 225° Southwest 333 383 36,000  Level Boston Center
Sun 10:02:21 PM 40.8583 -71.9858 224° Southwest 334 384 36,000  Level Boston Center
Sun 10:03:20 PM 40.7931 -72.0708 225° Southwest 331 381 36,000  Level Boston Center
Sun 10:04:21 PM 40.7217 -72.1672 226° Southwest 338 389 36,000  Level Boston Center
Sun 10:05:22 PM 40.6556 -72.2533 225° Southwest 335 386 36,000  Level Boston Center
Sun 10:06:24 PM 40.5900 -72.3389 225° Southwest 333 383 36,000  Level Boston Center
Sun 10:07:25 PM 40.5253 -72.4225 224° Southwest 329 379 36,000  Level Boston Center
Sun 10:08:26 PM 40.4586 -72.5081 224° Southwest 332 382 36,000  Level Boston Center
Sun 10:09:24 PM 40.3919 -72.5942 225° Southwest 336 387 36,000  Level Boston Center
Sun 10:10:25 PM 40.3269 -72.6803 225° Southwest 334 384 36,000  Level Boston Center
Sun 10:11:26 PM 40.2600 -72.7661 224° Southwest 336 387 36,000  Level Boston Center
Sun 10:12:28 PM 40.1983 -72.8456 225° Southwest 332 382 36,000  Level Boston Center
Sun 10:13:29 PM 40.1183 -72.9464 224° Southwest 331 381 36,000  Level Boston Center
Sun 10:14:15 PM 40.0772 -73.0022 226° Southwest 336 387 36,000  Level Washington Center
Sun 10:15:15 PM 40.0081 -73.0861 223° Southwest 341 392 36,000  Level Washington Center
Sun 10:16:15 PM 39.9411 -73.1694 224° Southwest 341 392 36,000  Level Washington Center
Sun 10:17:13 PM 39.8739 -73.2556 225° Southwest 341 392 36,000  Level Washington Center
Sun 10:18:14 PM 39.8089 -73.3389 225° Southwest 341 392 36,000  Level Washington Center
Sun 10:19:15 PM 39.7356 -73.4303 224° Southwest 341 392 36,000  Level Washington Center
Sun 10:20:13 PM 39.6683 -73.5131 223° Southwest 341 392 36,000  Level Washington Center
Sun 10:21:13 PM 39.6031 -73.5958 224° Southwest 341 392 36,000  Level Washington Center
Sun 10:22:14 PM 39.5378 -73.6811 225° Southwest 341 392 36,000  Level Washington Center
Sun 10:23:15 PM 39.4703 -73.7608 222° Southwest 341 392 36,000  Level Washington Center
Sun 10:24:14 PM 39.4047 -73.8458 225° Southwest 341 392 36,000  Level Washington Center
Sun 10:25:14 PM 39.3392 -73.9250 223° Southwest 341 392 36,000  Level Washington Center
Sun 10:26:16 PM 39.2758 -74.0044 224° Southwest 336 387 36,000  Level Washington Center
Sun 10:27:13 PM 39.2103 -74.0889 225° Southwest 331 381 36,000  Level Washington Center
Sun 10:28:14 PM 39.1486 -74.1703 226° Southwest 326 375 36,000  Level Washington Center
Sun 10:29:14 PM 39.0850 -74.2492 224° Southwest 326 375 36,000 -198 Level Washington Center
Sun 10:30:15 PM 39.0211 -74.3306 225° Southwest 326 375 35,600 -744 Descending Washington Center
Sun 10:31:15 PM 38.9575 -74.4117 225° Southwest 326 375 34,500 -1,119 Descending Washington Center
Sun 10:32:13 PM 38.8914 -74.4956 225° Southwest 326 375 33,400 -1,109 Descending Washington Center
Sun 10:33:14 PM 38.8275 -74.5792 226° Southwest 326 375 32,300 -694 Descending Washington Center
Sun 10:34:14 PM 38.7617 -74.6653 226° Southwest 331 381 32,000 -149 Descending Washington Center
Sun 10:35:15 PM 38.6914 -74.7511 224° Southwest 336 387 32,000  Level Washington Center
Sun 10:36:15 PM 38.6211 -74.8397 225° Southwest 347 399 32,000  Level Washington Center
Sun 10:37:16 PM 38.5508 -74.9253 224° Southwest 347 399 32,000  Level Washington Center
Sun 10:38:13 PM 38.4844 -75.0108 225° Southwest 347 399 32,000  Level Washington Center
Sun 10:39:15 PM 38.4139 -75.0961 223° Southwest 347 399 32,000  Level Washington Center
Sun 10:40:13 PM 38.3433 -75.1786 223° Southwest 347 399 32,000  Level Washington Center
Sun 10:41:13 PM 38.2769 -75.2717 228° Southwest 347 399 32,000  Level Washington Center
Sun 10:42:16 PM 38.2083 -75.3592 225° Southwest 347 399 32,000  Level Washington Center
Sun 10:43:15 PM 38.1375 -75.4411 222° Southwest 352 405 32,000  Level Washington Center
Sun 10:44:14 PM 38.0708 -75.5153 221° Southwest 352 405 32,000  Level Washington Center
Sun 10:45:15 PM 37.9981 -75.6103 226° Southwest 352 405 32,000  Level Washington Center
Sun 10:46:13 PM 37.9311 -75.6919 224° Southwest 347 399 32,000  Level Washington Center
Sun 10:47:15 PM 37.8622 -75.7786 225° Southwest 347 399 32,000  Level Washington Center
Sun 10:48:13 PM 37.7994 -75.8467 221° Southwest 347 399 32,000  Level Washington Center
Sun 10:49:13 PM 37.7306 -75.9383 226° Southwest 335 386 32,000  Level Washington Center
Sun 10:50:15 PM 37.6636 -76.0194 224° Southwest 330 380 32,000  Level Washington Center
Sun 10:51:16 PM 37.5986 -76.0978 224° Southwest 330 380 32,000 -403 Level Washington Center
Sun 10:52:14 PM 37.5358 -76.1653 220° Southwest 330 380 31,200 -1,385 Descending Washington Center
Sun 10:53:13 PM 37.4664 -76.2511 224° Southwest 342 394 29,300 -1,916 Descending Washington Center
Sun 10:54:13 PM 37.3931 -76.3369 223° Southwest 347 399 27,400 -1,884 Descending Washington Center
Sun 10:55:14 PM 37.3236 -76.4222 224° Southwest 352 405 25,500 -1,686 Descending Washington Center
Sun 10:56:14 PM 37.2519 -76.5078 224° Southwest 357 411 24,000 -744 Descending Washington Center
Sun 10:57:15 PM 37.1886 -76.6061 231° Southwest 357 411 24,000  Level Washington Center
Sun 10:58:14 PM 37.1272 -76.7042 232° Southwest 357 411 24,000  Level Washington Center
Sun 10:59:15 PM 37.0658 -76.7997 231° Southwest 357 411 24,000 -454 Level Washington Center
Sun 11:00:13 PM 37.0044 -76.8922 230° Southwest 357 411 23,100 -1,000 Descending Washington Center
Sun 11:01:15 PM 36.9450 -76.9847 231° Southwest 352 405 22,000 -550 Descending Washington Center
Sun 11:02:13 PM 36.8833 -77.0797 231° Southwest 347 399 22,000 -200 Level Washington Center
Sun 11:03:15 PM 36.8236 -77.1747 232° Southwest 352 405 21,600 -992 Descending Washington Center
Sun 11:04:14 PM 36.7619 -77.2667 230° Southwest 352 405 20,000 -1,322 Descending Washington Center
Sun 11:05:13 PM 36.7022 -77.3586 231° Southwest 347 399 19,000 -496 Descending Washington Center
Sun 11:06:15 PM 36.6422 -77.4531 232° Southwest 347 399 19,000  Level Washington Center
Sun 11:07:13 PM 36.5825 -77.5447 231° Southwest 347 399 19,000  Level Washington Center
Sun 11:08:14 PM 36.5225 -77.6339 230° Southwest 347 399 19,000  Level Washington Center
Sun 11:09:14 PM 36.4603 -77.7303 231° Southwest 347 399 19,000 -690 Level Washington Center
Sun 11:10:07 PM 36.3983 -77.8164 228° Southwest 348 400 17,700 -1,525 Descending Washington Center
Sun 11:10:13 PM 36.3981 -77.8319 269° West 353 406 17,500 -2,000 Descending Washington Center
Sun 11:10:55 PM 36.3511 -77.8925 226° Southwest 329 379 16,100 -1,800 Descending Washington Center
Sun 11:11:13 PM 36.3381 -77.9153 235° Southwest 343 395 15,700 -1,619 Descending Washington Center
Sun 11:11:58 PM 36.2908 -77.9808 228° Southwest 327 376 14,400 -1,800 Descending Washington Center
Sun 11:12:13 PM 36.2800 -78.0036 239° Southwest 338 389 13,900 -1,700 Descending Washington Center
Sun 11:12:58 PM 36.2350 -78.0642 227° Southwest 320 368 12,700 -1,600 Descending Washington Center
Sun 11:13:13 PM 36.2239 -78.0869 239° Southwest 332 382 12,300 -1,636 Descending Washington Center
Sun 11:14:04 PM 36.1789 -78.1525 230° Southwest 308 354 10,900 -1,600 Descending Washington Center
Sun 11:14:13 PM 36.1700 -78.1700 238° Southwest 321 369 10,700 -1,377 Descending Washington Center
Sun 11:15:05 PM 36.1394 -78.2308 238° Southwest 247 284 9,500 -1,475 Descending Washington Center
Sun 11:15:14 PM 36.1331 -78.2461 243° Southwest 279 321 9,200 -1,343 Descending Washington Center
Sun 11:16:12 PM 36.1061 -78.3197 246° West 249 287 8,000 -1,180 Descending Washington Center
Sun 11:16:15 PM 36.1061 -78.3247 270° West 258 297 8,000 -1,279 Level Washington Center
Sun 11:17:13 PM 36.0814 -78.4011 248° West 250 288 6,700 -1,220 Descending Washington Center
Sun 11:18:13 PM 36.0586 -78.4775 250° West 244 281 5,600 -1,091 Descending Washington Center
Sun 11:18:19 PM 36.0544 -78.4850 236° Southwest 221 254 5,500 -1,082 Descending Washington Center
Sun 11:19:14 PM 36.0361 -78.5433 249° West 227 261 4,500 -1,180 Descending Washington Center
Sun 11:19:20 PM 36.0339 -78.5508 250° West 216 249 4,300 -1,385 Descending Washington Center
Sun 11:20:19 PM 36.0050 -78.6244 244° Southwest 253 291 3,000 -720 Descending Washington Center
Sun 11:21:25 PM 35.9597 -78.6764 223° Southwest 197 227 2,800 -469 Descending Washington Center
Sun 11:22:27 PM 35.9317 -78.7164 229° Southwest 127 146 2,000 -738 Descending Washington Center
Sun 11:23:27 PM 35.9058 -78.7489 226° Southwest 117 135 1,300 -700 Descending Washington Center
Sun 11:24:27 PM 35.8819 -78.7786 225° Southwest 123 142 600 -700 Descending Washington Center
Sun 11:26:00 PM 35.8776 -78.7875 North  Level Estimated

Login

Don't have an account? Register now (free) for customized features, flight alerts, and more!